createdAt,value
2018-06-16T00:00:36.596Z,997.1
2018-06-16T00:01:46.416Z,997.06
2018-06-16T00:02:56.224Z,997.06
2018-06-16T00:04:06.035Z,997.06
2018-06-16T00:05:16.127Z,997.05
2018-06-16T00:06:26.214Z,997.04
2018-06-16T00:07:36.323Z,997.07
2018-06-16T00:08:46.128Z,997.04
2018-06-16T00:09:56.218Z,997.02
2018-06-16T00:11:06.309Z,997.05
2018-06-16T00:12:16.130Z,997.05
2018-06-16T00:13:25.954Z,997.05
2018-06-16T00:14:36.027Z,997.07
2018-06-16T00:15:46.111Z,997.08
2018-06-16T00:16:56.216Z,997.02
2018-06-16T00:18:06.289Z,997.06
2018-06-16T00:19:16.111Z,997.03
2018-06-16T00:20:25.967Z,997.05
2018-06-16T00:21:36.110Z,997
2018-06-16T00:22:46.176Z,997.02
2018-06-16T00:23:56.262Z,996.98
2018-06-16T00:25:06.365Z,997
2018-06-16T00:26:16.441Z,997
2018-06-16T00:27:26.524Z,996.99
2018-06-16T00:28:36.351Z,996.97
2018-06-16T00:29:46.408Z,996.98
2018-06-16T00:30:56.489Z,997.01
2018-06-16T00:32:06.047Z,997.01
2018-06-16T00:33:15.863Z,997
2018-06-16T00:34:25.928Z,997.01
2018-06-16T00:35:35.997Z,996.96
2018-06-16T00:36:46.081Z,996.99
2018-06-16T00:37:55.888Z,996.98
2018-06-16T00:39:05.987Z,996.96
2018-06-16T00:40:15.807Z,996.96
2018-06-16T00:41:25.358Z,996.99
2018-06-16T00:42:35.192Z,996.94
2018-06-16T00:43:45.283Z,997
2018-06-16T00:44:55.361Z,997.01
2018-06-16T00:46:05.470Z,997
2018-06-16T00:47:15.287Z,997.02
2018-06-16T00:48:25.370Z,997
2018-06-16T00:49:35.456Z,997.05
2018-06-16T00:50:45.265Z,997.05
2018-06-16T00:51:55.358Z,997.06
2018-06-16T00:53:04.918Z,997.03
2018-06-16T00:54:14.999Z,997.07
2018-06-16T00:55:24.544Z,997.04
2018-06-16T00:56:34.612Z,997.07
2018-06-16T00:57:44.424Z,997.03
2018-06-16T00:58:54.496Z,997.07
2018-06-16T01:00:04.341Z,997.04
2018-06-16T01:01:14.156Z,997.01
2018-06-16T01:02:24.286Z,997.03
2018-06-16T01:03:34.362Z,997.02
2018-06-16T01:04:44.161Z,997
2018-06-16T01:05:54.240Z,996.97
2018-06-16T01:07:04.061Z,996.97
2018-06-16T01:08:14.150Z,996.99
2018-06-16T01:09:23.957Z,996.92
2018-06-16T01:10:34.037Z,997
2018-06-16T01:11:44.114Z,996.94
2018-06-16T01:12:53.921Z,996.91
2018-06-16T01:14:03.739Z,996.89
2018-06-16T01:15:13.801Z,996.89
2018-06-16T01:16:23.872Z,996.91
2018-06-16T01:17:33.668Z,996.9
2018-06-16T01:18:43.489Z,996.87
2018-06-16T01:19:53.599Z,996.84
2018-06-16T01:21:03.688Z,996.83
2018-06-16T01:22:13.759Z,996.79
2018-06-16T01:23:23.831Z,996.76
2018-06-16T01:24:33.643Z,996.76
2018-06-16T01:25:43.709Z,996.73
2018-06-16T01:26:53.781Z,996.72
2018-06-16T01:28:03.856Z,996.66
2018-06-16T01:29:13.942Z,996.7
2018-06-16T01:30:23.757Z,996.75
2018-06-16T01:31:33.814Z,996.75
2018-06-16T01:32:43.868Z,996.71
2018-06-16T01:33:53.929Z,996.73
2018-06-16T01:35:03.734Z,996.73
2018-06-16T01:36:13.807Z,996.74
2018-06-16T01:37:23.888Z,996.7
2018-06-16T01:38:33.969Z,996.73
2018-06-16T01:39:44.067Z,996.7
2018-06-16T01:40:53.868Z,996.71
2018-06-16T01:42:03.160Z,996.69
2018-06-16T01:43:13.291Z,996.64
2018-06-16T01:44:23.362Z,996.66
2018-06-16T01:45:33.453Z,996.67
2018-06-16T01:46:43.560Z,996.67
2018-06-16T01:47:53.648Z,996.67
2018-06-16T01:49:03.486Z,996.69
2018-06-16T01:50:13.564Z,996.64
2018-06-16T01:51:23.644Z,996.64
2018-06-16T01:52:33.720Z,996.65
2018-06-16T01:53:43.791Z,996.6
2018-06-16T01:54:53.640Z,996.58
2018-06-16T01:56:03.725Z,996.56
2018-06-16T01:57:13.795Z,996.53
2018-06-16T01:58:23.879Z,996.55
2018-06-16T01:59:33.950Z,996.61
2018-06-16T02:00:44.030Z,996.58
2018-06-16T02:01:54.098Z,996.56
2018-06-16T02:03:04.168Z,996.54
2018-06-16T02:04:14.254Z,996.55
2018-06-16T02:05:24.056Z,996.56
2018-06-16T02:06:34.139Z,996.6
2018-06-16T02:07:44.232Z,996.56
2018-06-16T02:08:54.055Z,996.56
2018-06-16T02:10:04.145Z,996.56
2018-06-16T02:11:14.235Z,996.59
2018-06-16T02:12:24.411Z,996.61
2018-06-16T02:13:34.229Z,996.62
2018-06-16T02:14:44.314Z,996.57
2018-06-16T02:15:54.135Z,996.64
2018-06-16T02:17:03.935Z,996.63
2018-06-16T02:18:14.024Z,996.63
2018-06-16T02:19:24.100Z,996.64
2018-06-16T02:20:34.190Z,996.6
2018-06-16T02:21:44.000Z,996.61
2018-06-16T02:22:53.817Z,996.58
2018-06-16T02:24:03.936Z,996.58
2018-06-16T02:25:13.745Z,996.56
2018-06-16T02:26:23.813Z,996.55
2018-06-16T02:27:33.622Z,996.59
2018-06-16T02:28:43.700Z,996.59
2018-06-16T02:29:53.814Z,996.6
2018-06-16T02:31:03.612Z,996.63
2018-06-16T02:32:13.434Z,996.6
2018-06-16T02:33:23.248Z,996.61
2018-06-16T02:34:33.331Z,996.64
2018-06-16T02:35:43.446Z,996.62
2018-06-16T02:36:53.552Z,996.6
2018-06-16T02:38:03.624Z,996.59
2018-06-16T02:39:13.419Z,996.61
2018-06-16T02:40:23.233Z,996.61
2018-06-16T02:41:33.323Z,996.59
2018-06-16T02:42:43.420Z,996.58
2018-06-16T02:43:53.504Z,996.58
2018-06-16T02:45:03.593Z,996.6
2018-06-16T02:46:13.698Z,996.55
2018-06-16T02:47:23.563Z,996.59
2018-06-16T02:48:33.378Z,996.62
2018-06-16T02:49:43.211Z,996.58
2018-06-16T02:50:53.313Z,996.63
2018-06-16T02:52:03.411Z,996.65
2018-06-16T02:53:13.270Z,996.63
2018-06-16T02:54:23.104Z,996.7
2018-06-16T02:55:33.208Z,996.7
2018-06-16T02:56:43.287Z,996.68
2018-06-16T02:57:53.374Z,996.75
2018-06-16T02:59:03.183Z,996.73
2018-06-16T03:00:13.311Z,996.72
2018-06-16T03:01:23.118Z,996.74
2018-06-16T03:02:33.297Z,996.7
2018-06-16T03:34:39.822Z,996.89
2018-06-16T03:35:49.889Z,996.88
2018-06-16T03:36:59.962Z,996.84
2018-06-16T03:38:10.037Z,996.91
2018-06-16T03:39:20.118Z,996.89
2018-06-16T03:40:29.931Z,996.91
2018-06-16T03:41:39.743Z,996.91
2018-06-16T03:42:49.873Z,996.92
2018-06-16T03:43:59.415Z,996.87
2018-06-16T03:45:09.487Z,996.83
2018-06-16T03:46:19.561Z,996.85
2018-06-16T03:47:29.628Z,996.82
2018-06-16T03:48:39.699Z,996.83
2018-06-16T03:49:49.506Z,996.86
2018-06-16T03:50:59.586Z,996.91
2018-06-16T03:52:09.912Z,996.91
2018-06-16T03:53:19.461Z,996.9
2018-06-16T03:54:29.268Z,996.92
2018-06-16T03:55:39.068Z,996.95
2018-06-16T03:56:49.136Z,996.93
2018-06-16T03:57:58.937Z,996.95
2018-06-16T03:59:09.015Z,996.93
2018-06-16T04:00:19.096Z,996.96
2018-06-16T04:01:29.157Z,996.95
2018-06-16T04:02:39.220Z,996.97
2018-06-16T04:03:49.286Z,996.97
2018-06-16T04:04:59.352Z,996.97
2018-06-16T04:06:09.415Z,996.94
2018-06-16T04:07:19.247Z,997.02
2018-06-16T04:08:29.334Z,996.99
2018-06-16T04:09:39.154Z,996.99
2018-06-16T04:10:48.997Z,996.98
2018-06-16T04:11:59.092Z,997.06
2018-06-16T04:13:08.891Z,997.04
2018-06-16T04:14:18.965Z,997.06
2018-06-16T04:15:29.037Z,997.1
2018-06-16T04:16:38.857Z,997.08
2018-06-16T04:17:48.941Z,997.13
2018-06-16T04:18:58.743Z,997.46
2018-06-16T04:20:08.554Z,997.63
2018-06-16T04:21:18.630Z,997.67
2018-06-16T04:22:28.681Z,997.63
2018-06-16T04:23:38.755Z,997.66
2018-06-16T04:24:48.816Z,997.59
2018-06-16T04:25:58.896Z,997.6
2018-06-16T04:27:08.711Z,997.61
2018-06-16T04:28:18.568Z,997.61
2018-06-16T04:29:28.634Z,997.62
2018-06-16T04:30:38.188Z,997.6
2018-06-16T04:31:48.303Z,997.54
2018-06-16T04:32:58.732Z,997.54
2018-06-16T04:34:08.820Z,997.49
2018-06-16T04:35:19.194Z,997.45
2018-06-16T04:36:29.284Z,997.39
2018-06-16T04:37:38.857Z,997.41
2018-06-16T04:38:48.928Z,997.37
2018-06-16T04:39:59.029Z,997.34
2018-06-16T04:41:09.131Z,997.37
2018-06-16T04:42:19.202Z,997.4
2018-06-16T04:43:29.291Z,997.31
2018-06-16T04:44:39.372Z,997.33
2018-06-16T04:45:49.261Z,997.37
2018-06-16T04:46:59.187Z,997.42
2018-06-16T04:48:08.992Z,997.39
2018-06-16T04:49:19.063Z,997.33
2018-06-16T04:50:29.168Z,997.35
2018-06-16T04:51:39.000Z,997.42
2018-06-16T04:52:49.091Z,997.48
2018-06-16T04:53:59.161Z,997.43
2018-06-16T04:55:09.243Z,997.22
2018-06-16T04:56:19.374Z,997.19
2018-06-16T04:57:28.942Z,997.19
2018-06-16T04:58:38.761Z,997.2
2018-06-16T04:59:48.842Z,997.24
2018-06-16T05:00:58.921Z,997.29
2018-06-16T05:02:09.001Z,997.32
2018-06-16T05:03:19.081Z,997.42
2018-06-16T05:04:29.160Z,997.54
2018-06-16T05:05:38.988Z,997.4
2018-06-16T05:06:48.809Z,997.28
2018-06-16T05:07:58.887Z,997.28
2018-06-16T05:09:08.702Z,997.2
2018-06-16T05:10:18.791Z,997.21
2018-06-16T05:11:28.607Z,997.16
2018-06-16T05:12:38.681Z,997.16
2018-06-16T05:13:48.276Z,997.25
2018-06-16T05:14:58.091Z,997.3
2018-06-16T05:16:07.923Z,997.26
2018-06-16T05:17:17.496Z,997.27
2018-06-16T05:18:27.048Z,997.34
2018-06-16T05:19:37.119Z,997.53
2018-06-16T05:20:47.194Z,997.58
2018-06-16T05:21:57.007Z,997.59
2018-06-16T05:23:06.738Z,997.63
2018-06-16T05:24:16.804Z,997.94
2018-06-16T05:25:26.366Z,998.3
2018-06-16T05:26:36.497Z,998.09
2018-06-16T05:27:46.571Z,997.89
2018-06-16T05:28:56.642Z,997.88
2018-06-16T05:30:06.458Z,997.66
2018-06-16T05:31:16.538Z,997.55
2018-06-16T05:32:26.595Z,997.58
2018-06-16T05:33:36.392Z,997.72
2018-06-16T05:34:46.188Z,997.58
2018-06-16T05:35:56.278Z,997.28
2018-06-16T05:37:06.369Z,997.34
2018-06-16T05:38:16.209Z,997.37
2018-06-16T05:39:26.443Z,997.51
2018-06-16T05:40:36.235Z,997.64
2018-06-16T05:41:46.051Z,997.69
2018-06-16T05:42:55.597Z,997.81
2018-06-16T05:44:05.694Z,997.85
2018-06-16T05:45:15.514Z,997.83
2018-06-16T05:46:25.624Z,997.86
2018-06-16T05:47:35.448Z,997.86
2018-06-16T05:48:45.315Z,997.86
2018-06-16T05:49:55.142Z,997.88
2018-06-16T05:51:05.229Z,997.86
2018-06-16T05:52:15.065Z,997.71
2018-06-16T05:53:25.171Z,997.71
2018-06-16T05:54:34.994Z,997.79
2018-06-16T05:55:45.096Z,997.81
2018-06-16T05:56:55.159Z,997.75
2018-06-16T05:58:04.983Z,997.78
2018-06-16T05:59:15.077Z,997.85
2018-06-16T06:00:25.219Z,997.84
2018-06-16T06:01:35.562Z,997.84
2018-06-16T06:02:45.650Z,997.77
2018-06-16T06:03:55.734Z,997.72
2018-06-16T06:05:05.809Z,997.69
2018-06-16T06:06:15.947Z,997.74
2018-06-16T06:07:25.778Z,997.67
2018-06-16T06:08:35.595Z,997.62
2018-06-16T06:09:45.657Z,997.66
2018-06-16T06:10:55.742Z,997.7
2018-06-16T06:12:05.883Z,997.64
2018-06-16T06:13:15.967Z,997.62
2018-06-16T06:14:25.783Z,997.63
2018-06-16T06:15:35.885Z,997.62
2018-06-16T06:16:45.887Z,997.62
2018-06-16T06:17:55.707Z,997.59
2018-06-16T06:19:05.804Z,997.58
2018-06-16T06:20:16.195Z,997.53
2018-06-16T06:21:26.023Z,997.58
2018-06-16T06:22:36.102Z,997.56
2018-06-16T06:23:46.193Z,997.57
2018-06-16T06:24:56.253Z,997.53
2018-06-16T06:26:06.102Z,997.58
2018-06-16T06:27:16.190Z,997.55
2018-06-16T06:28:26.009Z,997.57
2018-06-16T06:29:36.106Z,997.56
2018-06-16T06:30:46.180Z,997.52
2018-06-16T06:31:56.314Z,997.56
2018-06-16T06:33:06.689Z,997.55
2018-06-16T06:34:16.561Z,997.61
2018-06-16T06:35:26.666Z,997.59
2018-06-16T06:36:36.752Z,997.57
2018-06-16T06:37:46.845Z,997.58
2018-06-16T06:38:56.666Z,997.54
2018-06-16T06:40:06.750Z,997.53
2018-06-16T06:41:16.567Z,997.49
2018-06-16T06:42:26.670Z,997.58
2018-06-16T06:43:36.494Z,997.56
2018-06-16T06:44:46.322Z,997.48
2018-06-16T06:45:56.161Z,997.39
2018-06-16T06:47:06.271Z,997.52
2018-06-16T06:48:16.363Z,997.51
2018-06-16T06:49:26.432Z,997.56
2018-06-16T06:50:36.270Z,997.59
2018-06-16T06:51:46.181Z,997.55
2018-06-16T06:52:56.464Z,997.45
2018-06-16T06:54:06.579Z,997.51
2018-06-16T06:55:16.402Z,997.51
2018-06-16T06:56:26.252Z,997.53
2018-06-16T06:57:36.085Z,997.55
2018-06-16T06:58:46.191Z,997.51
2018-06-16T06:59:56.289Z,997.53
2018-06-16T07:01:06.393Z,997.45
2018-06-16T07:02:16.485Z,997.46
2018-06-16T07:03:26.309Z,997.48
2018-06-16T07:04:36.174Z,997.46
2018-06-16T07:05:46.006Z,997.41
2018-06-16T07:06:56.088Z,997.4
2018-06-16T07:08:05.900Z,997.39
2018-06-16T07:09:15.978Z,997.39
2018-06-16T07:10:25.929Z,997.34
2018-06-16T07:11:36.227Z,997.34
2018-06-16T07:12:46.320Z,997.36
2018-06-16T07:13:56.434Z,997.34
2018-06-16T07:15:06.320Z,997.28
2018-06-16T07:16:16.175Z,997.32
2018-06-16T07:17:26.263Z,997.3
2018-06-16T07:18:36.085Z,997.23
2018-06-16T07:19:45.906Z,997.25
2018-06-16T07:20:55.990Z,997.23
2018-06-16T07:22:05.537Z,997.24
2018-06-16T07:23:15.621Z,997.21
2018-06-16T07:24:25.699Z,997.18
2018-06-16T07:25:35.789Z,997.22
2018-06-16T07:26:45.657Z,997.16
2018-06-16T07:27:55.739Z,997.19
2018-06-16T07:29:05.826Z,997.17
2018-06-16T07:30:16.077Z,997.12
2018-06-16T07:31:26.159Z,997.13
2018-06-16T07:32:35.958Z,997.15
2018-06-16T07:33:46.045Z,997.14
2018-06-16T07:34:56.128Z,997.09
2018-06-16T07:36:05.735Z,997.07
2018-06-16T07:37:15.938Z,997.11
2018-06-16T07:38:26.061Z,997.1
2018-06-16T07:39:36.156Z,997.03
2018-06-16T07:40:46.240Z,997.06
2018-06-16T07:41:56.363Z,997.08
2018-06-16T07:43:06.457Z,997.05
2018-06-16T07:44:16.573Z,996.98
2018-06-16T07:45:26.413Z,997
2018-06-16T07:46:36.507Z,996.98
2018-06-16T07:47:45.819Z,996.96
2018-06-16T07:48:55.934Z,996.96
2018-06-16T07:50:06.196Z,996.93
2018-06-16T07:51:16.040Z,996.92
2018-06-16T07:52:26.171Z,996.88
2018-06-16T07:53:36.304Z,996.96
2018-06-16T07:54:46.918Z,996.92
2018-06-16T07:55:57.041Z,996.92
2018-06-16T07:57:07.137Z,996.9
2018-06-16T07:58:17.250Z,996.92
2018-06-16T07:59:27.353Z,996.88
2018-06-16T08:00:37.442Z,996.93
2018-06-16T08:01:47.525Z,996.87
2018-06-16T08:02:57.607Z,996.87
2018-06-16T08:04:07.697Z,996.85
2018-06-16T08:05:17.807Z,996.86
2018-06-16T08:06:27.908Z,996.85
2018-06-16T08:07:37.672Z,996.87
2018-06-16T08:08:47.763Z,996.91
2018-06-16T08:09:57.888Z,996.87
2018-06-16T08:11:07.991Z,996.85
2018-06-16T08:12:18.088Z,996.9
2018-06-16T08:13:28.124Z,996.82
2018-06-16T08:14:37.981Z,996.8
2018-06-16T08:15:48.057Z,996.76
2018-06-16T08:16:58.169Z,996.8
2018-06-16T08:18:08.327Z,996.77
2018-06-16T08:19:18.422Z,996.78
2018-06-16T08:20:28.574Z,996.76
2018-06-16T08:21:38.137Z,996.77
2018-06-16T08:22:48.233Z,996.78
2018-06-16T08:23:58.330Z,996.74
2018-06-16T08:25:08.435Z,996.75
2018-06-16T08:26:18.539Z,996.86
2018-06-16T08:27:28.645Z,996.77
2018-06-16T08:28:38.771Z,996.73
2018-06-16T08:29:48.585Z,996.76
2018-06-16T08:30:58.727Z,996.73
2018-06-16T08:32:08.569Z,996.76
2018-06-16T08:33:18.664Z,996.77
2018-06-16T08:34:28.765Z,996.72
2018-06-16T08:35:38.863Z,996.68
2018-06-16T08:36:49.008Z,996.67
2018-06-16T08:37:59.107Z,996.59
2018-06-16T08:39:09.214Z,996.71
2018-06-16T08:40:19.323Z,996.68
2018-06-16T08:41:28.910Z,996.63
2018-06-16T08:42:38.770Z,996.59
2018-06-16T08:43:48.870Z,996.6
2018-06-16T08:44:58.985Z,996.58
2018-06-16T08:46:09.115Z,996.57
2018-06-16T08:47:19.216Z,996.61
2018-06-16T08:48:29.312Z,996.59
2018-06-16T08:49:39.454Z,996.52
2018-06-16T08:50:49.549Z,996.58
2018-06-16T08:51:59.652Z,996.55
2018-06-16T08:53:09.740Z,996.53
2018-06-16T08:54:19.849Z,996.54
2018-06-16T08:55:29.977Z,996.55
2018-06-16T08:56:40.382Z,996.55
2018-06-16T08:57:50.490Z,996.57
2018-06-16T08:59:00.592Z,996.54
2018-06-16T09:00:10.738Z,996.55
2018-06-16T09:01:20.929Z,996.58
2018-06-16T09:02:31.064Z,996.56
2018-06-16T09:03:41.158Z,996.59
2018-06-16T09:04:50.998Z,996.51
2018-06-16T09:06:01.148Z,996.53
2018-06-16T09:07:11.242Z,996.37
2018-06-16T09:08:21.322Z,996.46
2018-06-16T09:09:31.447Z,996.42
2018-06-16T09:10:41.532Z,996.35
2018-06-16T09:11:50.870Z,996.4
2018-06-16T09:13:00.974Z,996.44
2018-06-16T09:14:11.118Z,996.43
2018-06-16T09:15:21.235Z,996.43
2018-06-16T09:16:31.321Z,996.43
2018-06-16T09:17:41.157Z,996.43
2018-06-16T09:18:51.263Z,996.38
2018-06-16T09:20:01.365Z,996.36
2018-06-16T09:21:11.208Z,996.24
2018-06-16T09:22:21.321Z,996.41
2018-06-16T09:23:31.155Z,996.4
2018-06-16T09:24:40.984Z,996.41
2018-06-16T09:25:51.082Z,996.34
2018-06-16T09:27:01.193Z,996.41
2018-06-16T09:28:11.020Z,996.42
2018-06-16T09:29:21.144Z,996.4
2018-06-16T09:30:30.957Z,996.43
2018-06-16T09:31:40.826Z,996.44
2018-06-16T09:32:51.180Z,996.4
2018-06-16T09:34:01.276Z,996.4
2018-06-16T09:35:11.374Z,996.44
2018-06-16T09:36:21.282Z,996.37
2018-06-16T09:37:31.387Z,996.44
2018-06-16T09:38:41.768Z,996.44
2018-06-16T09:39:51.598Z,996.4
2018-06-16T09:41:01.688Z,996.39
2018-06-16T09:42:11.785Z,996.37
2018-06-16T09:43:21.913Z,996.37
2018-06-16T09:44:31.999Z,996.38
2018-06-16T09:45:41.833Z,996.37
2018-06-16T09:46:51.940Z,996.4
2018-06-16T09:48:01.793Z,996.39
2018-06-16T09:49:12.109Z,996.39
2018-06-16T09:50:22.657Z,996.36
2018-06-16T09:51:32.838Z,996.49
2018-06-16T09:52:43.390Z,996.49
2018-06-16T09:53:54.144Z,996.43
2018-06-16T09:55:04.724Z,996.52
2018-06-16T09:56:15.008Z,996.55
2018-06-16T09:57:25.125Z,996.53
2018-06-16T09:58:35.212Z,996.51
2018-06-16T09:59:45.368Z,996.48
2018-06-16T10:00:55.467Z,996.45
2018-06-16T10:02:05.269Z,996.44
2018-06-16T10:03:15.381Z,996.5
2018-06-16T10:04:25.409Z,996.45
2018-06-16T10:05:35.509Z,996.37
2018-06-16T10:06:45.368Z,996.4
2018-06-16T10:07:55.723Z,996.35
2018-06-16T10:09:05.567Z,996.38
2018-06-16T10:10:15.649Z,996.34
2018-06-16T10:11:25.733Z,996.39
2018-06-16T10:12:35.554Z,996.34
2018-06-16T10:13:45.637Z,996.34
2018-06-16T10:14:55.805Z,996.28
2018-06-16T10:16:05.909Z,996.31
2018-06-16T10:17:15.741Z,996.28
2018-06-16T10:18:25.864Z,996.24
2018-06-16T10:19:35.941Z,996.3
2018-06-16T10:20:46.069Z,996.22
2018-06-16T10:21:56.179Z,996.24
2018-06-16T10:23:06.275Z,996.32
2018-06-16T10:24:16.107Z,996.34
2018-06-16T10:25:26.216Z,996.25
2018-06-16T10:26:36.314Z,996.21
2018-06-16T10:27:46.397Z,996.22
2018-06-16T10:28:56.523Z,996.18
2018-06-16T10:30:06.931Z,996.24
2018-06-16T10:31:17.066Z,996.16
2018-06-16T10:32:27.217Z,996.16
2018-06-16T10:33:37.308Z,996.14
2018-06-16T10:34:47.129Z,996.24
2018-06-16T10:35:57.220Z,996.21
2018-06-16T10:37:07.058Z,996.19
2018-06-16T10:38:16.918Z,996.16
2018-06-16T10:39:27.011Z,996.16
2018-06-16T10:40:36.832Z,996.2
2018-06-16T10:41:46.938Z,996.23
2018-06-16T10:42:57.038Z,996.22
2018-06-16T10:44:07.139Z,996.17
2018-06-16T10:45:17.238Z,996.19
2018-06-16T10:46:27.345Z,996.18
2018-06-16T10:47:37.426Z,996.16
2018-06-16T10:48:47.535Z,996.17
2018-06-16T10:49:57.637Z,996.12
2018-06-16T10:51:07.727Z,996.16
2018-06-16T10:52:17.828Z,996.13
2018-06-16T10:53:27.928Z,996.16
2018-06-16T10:54:37.774Z,996.17
2018-06-16T10:55:47.896Z,996.16
2018-06-16T10:56:58.001Z,996.1
2018-06-16T10:58:08.105Z,996.11
2018-06-16T10:59:18.175Z,996.07
2018-06-16T11:00:28.346Z,996.13
2018-06-16T11:01:38.585Z,996.16
2018-06-16T11:02:48.426Z,996.14
2018-06-16T11:03:58.541Z,996.13
2018-06-16T11:05:08.397Z,996.12
2018-06-16T11:06:18.241Z,996.12
2018-06-16T11:07:28.375Z,996.09
2018-06-16T11:08:38.475Z,996.1
2018-06-16T11:09:48.583Z,996.09
2018-06-16T11:10:58.718Z,996.07
2018-06-16T11:12:08.542Z,996.05
2018-06-16T11:13:18.674Z,996.08
2018-06-16T11:14:28.520Z,996.07
2018-06-16T11:15:38.593Z,996.07
2018-06-16T11:16:47.886Z,996.06
2018-06-16T11:17:57.964Z,996.04
2018-06-16T11:19:07.815Z,996.05
2018-06-16T11:20:18.163Z,996.03
2018-06-16T11:21:28.285Z,995.97
2018-06-16T11:22:38.415Z,996.01
2018-06-16T11:23:48.496Z,995.97
2018-06-16T11:24:58.587Z,995.93
2018-06-16T11:26:08.179Z,995.93
2018-06-16T11:27:18.287Z,995.98
2018-06-16T11:28:28.392Z,995.96
2018-06-16T11:29:38.240Z,995.98
2018-06-16T11:30:48.332Z,995.88
2018-06-16T11:31:58.442Z,995.91
2018-06-16T11:33:08.556Z,995.95
2018-06-16T11:34:18.399Z,995.94
2018-06-16T11:35:28.492Z,995.93
2018-06-16T11:36:38.786Z,995.9
2018-06-16T11:37:48.887Z,995.88
2018-06-16T11:38:59.002Z,995.86
2018-06-16T11:40:08.843Z,995.86
2018-06-16T11:41:18.779Z,995.84
2018-06-16T11:42:28.917Z,995.9
2018-06-16T11:43:39.000Z,995.89
2018-06-16T11:44:49.113Z,995.94
2018-06-16T11:45:58.666Z,995.93
2018-06-16T11:47:08.268Z,995.95
2018-06-16T11:48:18.086Z,995.98
2018-06-16T11:49:28.184Z,996
2018-06-16T11:50:38.285Z,996.01
2018-06-16T11:51:48.388Z,995.93
2018-06-16T11:52:58.487Z,995.98
2018-06-16T11:54:08.610Z,995.94
2018-06-16T11:55:18.451Z,995.94
2018-06-16T11:56:28.558Z,995.93
2018-06-16T11:57:38.692Z,995.95
2018-06-16T11:58:48.956Z,995.94
2018-06-16T11:59:58.541Z,995.93
2018-06-16T12:01:08.671Z,995.95
2018-06-16T12:02:18.780Z,995.96
2018-06-16T12:03:28.879Z,995.95
2018-06-16T12:04:39.006Z,995.93
2018-06-16T12:05:48.832Z,995.92
2018-06-16T12:06:58.926Z,995.97
2018-06-16T12:08:09.017Z,995.99
2018-06-16T12:09:19.115Z,995.93
2018-06-16T12:10:29.219Z,995.99
2018-06-16T12:11:39.362Z,995.96
2018-06-16T12:12:49.480Z,995.97
2018-06-16T12:13:59.614Z,995.98
2018-06-16T12:15:09.723Z,996
2018-06-16T12:16:19.558Z,995.97
2018-06-16T12:17:29.665Z,995.97
2018-06-16T12:18:39.795Z,995.96
2018-06-16T12:19:49.647Z,995.98
2018-06-16T12:20:59.764Z,995.98
2018-06-16T12:22:09.870Z,995.97
2018-06-16T12:23:19.979Z,995.93
2018-06-16T12:24:29.820Z,995.96
2018-06-16T12:25:39.399Z,995.89
2018-06-16T12:26:49.496Z,995.85
2018-06-16T12:27:59.641Z,995.82
2018-06-16T12:29:09.763Z,995.83
2018-06-16T12:30:19.850Z,995.85
2018-06-16T12:31:30.022Z,995.81
2018-06-16T12:32:40.112Z,995.8
2018-06-16T12:33:50.207Z,995.81
2018-06-16T12:35:00.040Z,995.82
2018-06-16T12:36:10.148Z,995.87
2018-06-16T12:37:19.971Z,995.86
2018-06-16T12:38:30.294Z,995.84
2018-06-16T12:39:40.393Z,995.9
2018-06-16T12:40:50.494Z,995.89
2018-06-16T12:42:00.623Z,995.88
2018-06-16T12:43:10.445Z,995.88
2018-06-16T12:44:20.549Z,995.86
2018-06-16T12:45:30.126Z,995.86
2018-06-16T12:46:40.270Z,995.89
2018-06-16T12:47:50.106Z,995.9
2018-06-16T12:49:00.199Z,995.91
2018-06-16T12:50:10.044Z,995.87
2018-06-16T12:51:20.127Z,995.83
2018-06-16T12:52:30.498Z,995.83
2018-06-16T12:53:40.560Z,995.8
2018-06-16T12:54:50.655Z,995.82
2018-06-16T12:56:00.778Z,995.8
2018-06-16T12:57:10.667Z,995.82
2018-06-16T12:58:21.113Z,995.87
2018-06-16T12:59:30.922Z,995.92
2018-06-16T13:00:40.763Z,995.88
2018-06-16T13:01:50.592Z,995.88
2018-06-16T13:03:00.691Z,995.9
2018-06-16T13:04:10.813Z,995.9
2018-06-16T13:05:20.920Z,995.93
2018-06-16T13:06:30.493Z,995.92
2018-06-16T13:07:40.590Z,995.92
2018-06-16T13:08:50.445Z,995.89
2018-06-16T13:10:00.547Z,995.89
2018-06-16T13:11:10.371Z,995.89
2018-06-16T13:12:20.489Z,995.86
2018-06-16T13:13:30.383Z,995.9
2018-06-16T13:14:40.245Z,995.87
2018-06-16T13:15:50.377Z,995.9
2018-06-16T13:17:00.485Z,995.89
2018-06-16T13:18:10.626Z,995.92
2018-06-16T13:19:20.964Z,995.91
2018-06-16T13:20:31.049Z,995.89
2018-06-16T13:21:41.140Z,995.88
2018-06-16T13:22:51.246Z,995.89
2018-06-16T13:24:01.354Z,995.9
2018-06-16T13:25:11.460Z,995.95
2018-06-16T13:26:21.552Z,995.91
2018-06-16T13:27:31.652Z,995.94
2018-06-16T13:28:41.744Z,995.96
2018-06-16T13:29:51.628Z,995.9
2018-06-16T13:31:01.249Z,995.92
2018-06-16T13:32:11.387Z,995.92
2018-06-16T13:33:21.492Z,995.9
2018-06-16T13:34:31.588Z,995.93
2018-06-16T13:35:41.656Z,995.92
2018-06-16T13:36:51.755Z,995.89
2018-06-16T13:38:01.903Z,995.88
2018-06-16T13:39:12.062Z,995.9
2018-06-16T13:40:22.161Z,995.87
2018-06-16T13:41:32.005Z,995.88
2018-06-16T13:42:41.837Z,995.87
2018-06-16T13:43:51.939Z,995.83
2018-06-16T13:45:02.042Z,995.86
2018-06-16T13:54:47.848Z,995.84
2018-06-16T13:55:57.944Z,995.83
2018-06-16T13:57:07.529Z,995.82
2018-06-16T13:58:17.644Z,995.78
2018-06-16T13:59:27.482Z,995.79
2018-06-16T14:00:37.554Z,995.74
2018-06-16T14:01:47.666Z,995.74
2018-06-16T14:02:57.500Z,995.76
2018-06-16T14:04:07.578Z,995.73
2018-06-16T14:05:17.662Z,995.75
2018-06-16T14:06:27.475Z,995.73
2018-06-16T14:07:37.596Z,995.74
2018-06-16T14:08:47.704Z,995.72
2018-06-16T14:09:58.013Z,995.72
2018-06-16T14:11:08.126Z,995.72
2018-06-16T14:12:18.021Z,995.71
2018-06-16T14:13:27.867Z,995.7
2018-06-16T14:14:37.704Z,995.71
2018-06-16T14:15:47.926Z,995.73
2018-06-16T14:16:57.768Z,995.73
2018-06-16T14:18:07.851Z,995.73
2018-06-16T14:19:17.691Z,995.72
2018-06-16T14:20:27.799Z,995.73
2018-06-16T14:21:37.932Z,995.71
2018-06-16T14:22:48.006Z,995.69
2018-06-16T14:23:58.164Z,995.7
2018-06-16T14:25:08.008Z,995.71
2018-06-16T14:26:18.320Z,995.73
2018-06-16T14:27:28.424Z,995.68
2018-06-16T14:28:38.502Z,995.71
2018-06-16T14:29:48.588Z,995.69
2018-06-16T14:30:58.684Z,995.69
2018-06-16T14:32:08.770Z,995.73
2018-06-16T14:33:18.857Z,995.7
2018-06-16T14:34:28.962Z,995.68
2018-06-16T14:35:39.057Z,995.67
2018-06-16T14:36:49.171Z,995.73
2018-06-16T14:37:59.263Z,995.7
2018-06-16T14:39:09.344Z,995.67
2018-06-16T14:40:19.470Z,995.68
2018-06-16T14:41:29.689Z,995.69
2018-06-16T14:42:39.514Z,995.67
2018-06-16T14:43:49.099Z,995.66
2018-06-16T14:44:59.205Z,995.69
2018-06-16T14:46:09.283Z,995.68
2018-06-16T14:47:19.394Z,995.66
2018-06-16T14:48:29.522Z,995.62
2018-06-16T14:49:40.005Z,995.61
2018-06-16T14:50:50.109Z,995.62
2018-06-16T14:52:00.218Z,995.58
2018-06-16T14:53:10.315Z,995.59
2018-06-16T14:54:20.206Z,995.6
2018-06-16T14:55:30.052Z,995.61
2018-06-16T14:56:40.146Z,995.61
2018-06-16T14:57:50.253Z,995.59
2018-06-16T14:59:00.428Z,995.61
2018-06-16T15:00:10.518Z,995.6
2018-06-16T15:01:20.389Z,995.59
2018-06-16T15:02:30.489Z,995.58
2018-06-16T15:03:40.603Z,995.56
2018-06-16T15:04:50.797Z,995.58
2018-06-16T15:06:01.618Z,995.63
2018-06-16T15:07:11.738Z,995.61
2018-06-16T15:08:21.565Z,995.59
2018-06-16T15:09:31.712Z,995.6
2018-06-16T15:10:41.689Z,995.62
2018-06-16T15:11:51.779Z,995.59
2018-06-16T15:13:01.866Z,995.57
2018-06-16T15:14:11.976Z,995.56
2018-06-16T15:15:22.045Z,995.54
2018-06-16T15:16:31.877Z,995.55